| Station | Date | Time | Temp (°F) | RH (%) | Dew Pt (°F) | Wind Spd (mph) | Wind Dir (°) | Wind Gust (mph) | Latest Rain (In) | Daily Rain (In) | Daily Max Temp (°F) | Daily Min Temp (°F) |
|---|---|---|---|---|---|---|---|---|---|---|---|---|
| Dollarhide 17B Remote | 5/7/26 | 0715 | - | - | - | - | - | - | - | - | 54.8 2.2 | 49.1 6.0 |
| Dollarhide 18A Remote | 5/7/26 | 0715 | 51.3 4.6 | 100 6 | 51.3 3.0 | - | - | - | - | - | 55.9 0.6 | 44.7 9.8 |
| Dollarhide 1AS Remote | 5/7/26 | 0715 | 52.7 4.1 | 94 5 | 51.0 2.6 | 0.5 0.5 | NW | 326 | 2.7 2.7 | - | - | 55.5 1.8 | 47.1 8.2 |
| Angwin | 5/7/26 | 0715 | 58.3 5.9 | 87 8 | 54.5 3.3 | 5.1 1.9 | N | 349 | 7.4 2.4 | 0.00 | 0.00 | 58.8 6.2 | 54.9 4.9 |
| Lower Angwin (Pioneer) | 5/7/26 | 0715 | 53.7 1.4 | - | - | 0.0 0.5 | N | 0 | 0.0 1.5 | - | - | 54.8 2.1 | 45.5 5.4 |
| Lower Chiles Valley (Brown) | 5/7/26 | 0715 | 50.7 3.5 | 100 11 | 50.7 0.2 | 1.3 0.7 | NW | 306 | 4.8 2.5 | 0.00 | 0.00 | 52.0 3.0 | 49.5 3.6 |
| Deer Park | 5/7/26 | 0715 | 51.3 3.5 | 99 10 | 51.0 0.5 | 1.4 0.5 | WNW | 303 | 3.6 0.4 | 0.00 | 0.00 | 51.9 3.3 | 50.9 2.6 |
| Moss Creek Vineyard/Reservior | 5/7/26 | 0430 | 51.0 4.1 | 96 12 | 50.0 0.4 | - | - | - | 0.00 | 0.00 | 54.2 2.0 | 50.2 4.9 |
| Montesol | 5/7/26 | 0715 | 51.6 2.5 | - | - | - | - | - | 0.00 | 0.00 | 52.3 1.8 | 47.8 4.1 |
| Dollarhide Base | 5/7/26 | 0715 | 55.8 1.6 | 91 2 | 53.2 1.1 | 0.5 0.1 | SE | 140 | 1.7 0.1 | 0.00 | 0.00 | 58.3 0.8 | 49.1 6.3 |
| Pope Valley (Weeks Lake) | 5/7/26 | 0715 | 50.0 6.2 | 100 17 | 50.0 1.2 | 0.0 0.0 | N | 0 | 0.0 0.9 | 0.00 | 0.00 | 50.9 5.7 | 45.9 9.1 |
| Max | 58.3 | 100 | 54.5 | 5.1 | - | 7.4 | 0.00 | 0.00 | 58.8 | 54.9 | ||
| Avg | 52.8 | 96 | 51.6 | 1.2 | - | 2.9 | 0.00 | - | - | - | ||
| Min | 50.0 | 87 | 50.0 | 0.0 | - | 0.0 | 0.00 | 0.00 | 50.9 | 44.7 |
| Station | Date | Time | Temp (°F) | RH (%) | Dew Pt (°F) | Wind Spd (mph) | Wind Dir (°) | Wind Gust (mph) | Latest Rain (In) | Daily Rain (In) | Daily Max Temp (°F) | Daily Min Temp (°F) |
|---|---|---|---|---|---|---|---|---|---|---|---|---|
| Calistoga-North | 5/7/26 | 0715 | 52.6 3.0 | 97 6 | 51.6 1.3 | - | - | - | 0.00 | 0.00 | 54.0 2.5 | 51.8 3.2 |
| Stags Leap Dist (Chimney Rock) | 5/7/26 | 0715 | 53.2 2.7 | 97 4 | 52.4 1.5 | 1.2 1.1 | NW | 318 | 2.7 2.0 | 0.00 | 0.00 | 54.1 2.8 | 52.4 2.2 |
| Diamond Mtn (McEachran) | 5/7/26 | 0715 | 50.6 3.6 | 99 10 | 50.4 0.9 | - | - | - | - | - | 52.7 2.5 | 50.4 3.4 |
| Diamond Mtn (Schramsberg) | 5/7/26 | 0715 | 49.9 3.6 | 100 4 | 49.9 2.5 | - | - | - | 0.00 | 0.00 | 51.1 2.9 | 49.3 3.2 |
| Stags Leap Dist (Silverado Vineyards) | 5/7/26 | 0715 | 52.2 2.9 | 94 7 | 50.4 0.9 | 1.4 1.3 | E | 90 | 2.6 1.7 | 0.00 | 0.00 | 52.8 3.2 | 51.9 2.2 |
| Oak Knoll-East (Ranch 53) | 5/7/26 | 0715 | 52.9 3.0 | 93 6 | 50.9 1.2 | 1.2 1.2 | S | 173 | 2.7 2.0 | 0.00 | 0.00 | 53.8 2.8 | 52.6 2.8 |
| Rutherford-North (Mee Ln) | 5/7/26 | 0715 | 50.5 4.9 | 94 7 | 49.0 2.8 | 2.0 1.5 | S | 184 | 3.7 2.2 | 0.00 | 0.00 | 52.0 4.7 | 50.4 4.1 |
| Frisinger Napa-NW | 5/7/26 | 0715 | 53.3 2.6 | 93 4 | 51.5 1.5 | 1.1 0.7 | E | 88 | 2.8 0.5 | 0.00 | 0.00 | 53.7 3.2 | 53.0 2.1 |
| Napa-North (Ranch 29) | 5/7/26 | 0715 | 53.0 2.7 | 100 1 | 53.0 2.4 | 0.4 0.4 | W | 267 | 1.9 1.9 | 0.00 | 0.00 | 53.4 3.1 | 51.9 3.1 |
| St. Helena (NVV Office) | 5/7/26 | 0715 | 53.4 3.6 | - | - | 0.5 0.2 | NW | 318 | 2.0 0.1 | 0.00 | 0.00 | 54.5 3.7 | 53.2 2.9 |
| Crossroads Ranch | 5/7/26 | 0715 | 53.2 3.1 | 93 6 | 51.3 1.1 | 1.6 1.6 | SSE | 159 | 2.8 2.8 | 0.00 | 0.00 | 53.8 3.4 | 53.2 2.4 |
| Oakville | 5/7/26 | 0715 | 53.0 3.3 | 96 10 | 52.0 0.3 | 0.9 0.8 | N | 10 | 2.6 2.0 | 0.00 | 0.00 | 53.6 3.3 | 52.8 2.7 |
| OV561-East | 5/7/26 | 0715 | 53.4 2.6 | - | - | - | - | - | - | - | 54.0 3.2 | 53.2 2.1 |
| OV518-West | 5/7/26 | 0715 | 53.4 2.7 | - | - | - | - | - | - | - | 53.9 3.3 | 53.1 2.3 |
| Napa-NW (Ranch 54) | 5/7/26 | 0715 | 53.5 2.6 | 94 6 | 51.8 0.9 | 0.2 0.1 | ENE | 59 | 1.2 0.5 | 0.00 | 0.00 | 54.0 3.2 | 52.9 2.6 |
| Calistoga (Ranch 78) | 5/7/26 | 0715 | 51.9 4.0 | 92 6 | 49.8 2.0 | 3.2 0.6 | WSW | 251 | 5.6 0.4 | 0.00 | 0.00 | 53.8 2.6 | 51.7 3.5 |
| Yountville-SE (Ranch 85) | 5/7/26 | 0715 | 52.9 3.1 | 96 6 | 51.8 1.4 | 1.2 1.1 | NW | 325 | 2.5 1.8 | 0.00 | 0.00 | 54.0 2.7 | 52.8 2.2 |
| Yountville-South (Ranch 87) | 5/7/26 | 0715 | 53.0 3.1 | 99 8 | 52.7 0.8 | 0.6 0.6 | NNE | 15 | 1.6 0.7 | 0.00 | 0.00 | 53.8 2.8 | 52.6 2.6 |
| Rutherford Hill Estate | 5/7/26 | 0715 | 52.4 2.9 | 100 10 | 52.4 0.0 | 0.7 0.6 | SW | 232 | 3.1 2.4 | 0.00 | 0.00 | 52.7 3.1 | 51.8 2.6 |
| Rutherford (STS) | 5/7/26 | 0715 | 53.1 3.4 | 87 3 | 49.3 4.3 | 1.9 1.9 | NW | 304 | 3.7 3.2 | 0.00 | 0.00 | 53.6 3.5 | 52.7 2.4 |
| Borreo (Soda Canyon) | 5/7/26 | 0700 | 50.3 2.7 | 98 5 | 49.8 1.3 | 0.7 0.3 | NNE | 31 | 1.8 0.5 | 0.00 | 0.00 | 50.8 3.3 | 49.6 3.0 |
| Oakville-NE (Ranch 88) | 5/7/26 | 0715 | 53.2 2.9 | 97 10 | 52.3 0.1 | 0.0 0.0 | E | 87 | 1.8 1.8 | 0.00 | 0.00 | 53.7 3.3 | 52.6 3.0 |
| Soda Canyon | 5/7/26 | 0715 | 52.7 2.7 | 91 4 | 50.1 1.6 | 1.2 1.1 | SE | 130 | 2.9 2.0 | 0.00 | 0.00 | 54.1 2.1 | 47.3 6.8 |
| Silver Oak OV | 5/7/26 | 0715 | 53.1 3.7 | 96 9 | 51.9 0.9 | 1.7 1.6 | S | 174 | 4.1 3.2 | 0.00 | 0.00 | 53.8 3.5 | 53.0 2.7 |
| Tiara Fria (East St. Helena) | 5/7/26 | 0715 | 53.6 3.4 | 94 10 | 52.0 0.2 | 2.3 1.4 | NW | 310 | 4.6 1.5 | 0.00 | 0.00 | 54.4 3.5 | 53.3 3.0 |
| To Kalon Remote (TKKE) | 5/7/26 | 0715 | 53.5 3.4 | - | - | - | - | - | - | - | 54.1 3.5 | 53.2 2.9 |
| To Kalon | 5/7/26 | 0715 | 53.4 2.8 | 97 5 | 52.5 1.3 | 1.5 1.4 | E | 101 | 2.8 1.5 | 0.00 | 0.00 | 53.8 3.0 | 53.1 2.2 |
| To Kalon Remote (TKN5) | 5/7/26 | 0715 | 54.0 2.7 | - | - | - | - | - | - | - | 54.1 3.1 | 53.4 2.3 |
| St. Helena-North | 5/7/26 | 0715 | 52.9 3.5 | 88 7 | 49.4 1.2 | 1.1 0.2 | WNW | 292 | 4.2 0.7 | 0.00 | 0.00 | 54.0 3.3 | 52.5 2.8 |
| Twomey Calistoga | 5/7/26 | 0715 | 52.4 3.6 | 92 7 | 50.2 1.5 | 2.3 0.4 | WSW | 249 | 4.6 0.4 | 0.00 | 0.00 | 53.6 2.8 | 52.1 2.9 |
| Wappo Hill Floor | 5/7/26 | 0715 | 51.5 4.5 | 100 13 | 51.5 0.6 | 1.1 1.1 | W | 270 | 3.2 3.2 | 0.00 | 0.00 | 53.2 3.4 | 51.4 2.7 |
| Yountville (Ranch 67) | 5/7/26 | 0715 | 52.3 3.3 | 94 5 | 50.8 1.7 | 1.7 1.7 | ESE | 113 | 3.9 3.4 | 0.00 | 0.00 | 52.8 3.6 | 52.0 2.4 |
| Max | 54.0 | 100 | 53.0 | 3.2 | - | 5.6 | 0.00 | 0.00 | 54.5 | 53.4 | ||
| Avg | 52.6 | 95 | 51.1 | 1.3 | - | 3.0 | 0.00 | - | - | - | ||
| Min | 49.9 | 87 | 49.0 | 0.0 | - | 1.2 | 0.00 | 0.00 | 50.8 | 47.3 |
| Station | Date | Time | Temp (°F) | RH (%) | Dew Pt (°F) | Wind Spd (mph) | Wind Dir (°) | Wind Gust (mph) | Latest Rain (In) | Daily Rain (In) | Daily Max Temp (°F) | Daily Min Temp (°F) |
|---|---|---|---|---|---|---|---|---|---|---|---|---|
| Carneros (Milton Rd) | 5/7/26 | 0715 | 52.6 3.3 | 93 5 | 50.6 1.8 | - | - | - | 0.00 | 0.00 | 53.4 2.9 | 51.5 3.3 |
| Carneros Lower (Ranch 81) | 5/7/26 | 0715 | 52.4 3.1 | 100 10 | 52.4 0.1 | 0.4 0.0 | S | 173 | 2.6 0.1 | 0.00 | 0.00 | 52.7 2.9 | 51.1 3.5 |
| Carneros Upper (Ranch 81) | 5/7/26 | 0715 | 51.1 3.5 | 1 88 | -55.5 106.9 | 4.1 1.0 | WSW | 241 | 6.6 0.9 | - | - | 51.7 2.9 | 50.9 2.9 |
| Carneros (Mitsuko) | 5/7/26 | 0715 | 52.4 3.4 | - | - | - | - | - | - | - | 52.7 3.8 | 50.1 4.3 |
| Mount George (Napa East) | 5/7/26 | 0715 | 52.4 3.9 | 96 6 | 51.5 2.3 | 1.0 0.6 | E | 89 | 2.8 1.5 | 0.00 | 0.00 | 57.0 0.4 | 52.2 3.4 |
| Napa-East (Palmaz 300') | 5/7/26 | 0715 | 51.7 3.6 | 100 10 | 51.7 0.5 | 1.4 1.4 | E | 95 | 3.1 3.1 | 0.00 | 0.00 | 53.8 1.9 | 51.0 3.3 |
| Napa-East (Palmaz 1200') | 5/7/26 | 0715 | 49.0 3.9 | 75 5 | 41.4 4.2 | 1.1 1.0 | NNW | 344 | 2.3 1.6 | - | - | 50.8 2.6 | 48.4 3.1 |
| Napa-East (Palmaz 1400') | 5/7/26 | 0715 | 48.7 3.6 | 100 9 | 48.7 1.0 | 1.0 0.2 | SSW | 206 | 3.3 1.0 | 0.00 | 0.00 | 50.2 2.3 | 47.8 3.3 |
| Dealy Lane (Ranch 80) | 5/7/26 | 0715 | 52.4 4.1 | 95 9 | 51.0 1.2 | 1.0 0.6 | N | 9 | 2.7 1.2 | 0.00 | 0.00 | 52.4 4.1 | 51.7 3.2 |
| Suscol Mtn (Ranch 93) | 5/7/26 | 0715 | 49.2 4.5 | 100 12 | 49.2 1.0 | 3.7 3.4 | NW | 309 | 7.1 5.6 | 0.00 | 0.00 | 50.2 3.5 | 48.9 2.6 |
| Carneros (Saintsbury) | 5/7/26 | 0715 | 49.5 5.3 | 100 11 | 49.5 2.0 | 3.1 2.2 | SW | 233 | 5.0 3.0 | 0.00 | 0.00 | 50.4 5.3 | 49.4 4.3 |
| Sugarloaf West | 5/7/26 | 0715 | 52.7 3.3 | 95 6 | 51.4 1.4 | 0.9 0.4 | WSW | 247 | 3.8 1.5 | 0.00 | 0.00 | 53.7 2.4 | 52.3 1.9 |
| Suscol Upper (Ranch 92) | 5/7/26 | 0715 | 49.8 3.9 | 100 11 | 49.8 0.7 | 0.0 0.0 | WSW | 247 | 0.0 0.0 | 0.00 | 0.00 | 50.6 3.2 | 49.5 2.5 |
| Stanly (Ranch 45) | 5/7/26 | 0715 | 50.4 4.3 | 94 6 | 48.6 2.7 | 4.8 3.1 | WSW | 240 | 7.5 5.1 | 0.00 | 0.00 | 51.6 3.9 | 50.4 3.4 |
| Suscol Lower (Ranch 35) | 5/7/26 | 0715 | 51.9 4.2 | 100 14 | 51.9 0.1 | 3.2 2.2 | WSW | 246 | 5.6 2.8 | 0.00 | 0.00 | 53.0 3.3 | 51.6 2.0 |
| Napa-South (Toyon Farms) | 5/7/26 | 0715 | 52.4 2.7 | 100 4 | 52.4 1.5 | 0.0 0.0 | N | 0 | 0.0 0.0 | 0.00 | 0.00 | 52.8 3.3 | 50.5 3.9 |
| Toyon Remote 1 | 5/7/26 | 0715 | 52.6 3.1 | - | - | - | - | - | - | - | 52.7 4.4 | 45.8 7.4 |
| Toyon Remote 2 | 5/7/26 | 0715 | 52.8 3.1 | - | - | - | - | - | - | - | 53.1 3.2 | 50.0 4.2 |
| Toyon Remote 3 | 5/7/26 | 0715 | 52.9 4.7 | - | - | - | - | - | - | - | 53.0 6.4 | 49.7 5.0 |
| Napa-West Lower (Truchard) | 5/7/26 | 0715 | 51.5 3.9 | 96 7 | 50.4 1.9 | - | - | - | - | - | 51.8 4.5 | 46.5 7.5 |
| Napa-West Upper (Truchard) | 5/7/26 | 0715 | 50.6 4.8 | 0 96 | -65.7 120.0 | 2.4 2.4 | S | 191 | 4.1 4.1 | 0.00 | 0.00 | 51.2 4.7 | 49.7 4.4 |
| Mt. Veeder | 5/7/26 | 0715 | 48.7 4.1 | 100 8 | 48.7 1.8 | 0.3 0.1 | NNE | 21 | 1.9 0.6 | 0.00 | 0.00 | 54.0 0.3 | 47.3 3.6 |
| Wooden Valley | 5/7/26 | 0715 | 50.4 5.0 | 95 15 | 49.0 0.2 | 2.0 1.5 | SW | 226 | 5.4 3.3 | 0.00 | 0.00 | 54.6 1.3 | 49.7 4.6 |
| Max | 52.9 | 100 | 52.4 | 4.8 | - | 7.5 | 0.00 | 0.00 | 57.0 | 52.3 | ||
| Avg | 51.2 | 86 | 38.3 | 1.8 | - | 3.8 | 0.00 | - | - | - | ||
| Min | 48.7 | 0 | -65.7 | 0.0 | - | 0.0 | 0.00 | 0.00 | 50.2 | 45.8 |